Αναφορές Αεροδρομίων

 

KSJC - San Jose, California, USA
Distance from station: ΒΑ 14km
Ενημερώθηκε: 02/03/2024 23:53
Συννεφιά
Συννεφιά
 Ανεμος από ΔΝΔ
Ανεμος: ΔΝΔ 20 km/h, Ριπή: 35 km/h
Θερμοκρασία: 13°C
Σημείο Δρόσου: 2°C
Υγρασία: 47%
Βαρόμετρο: 1011.2 hPa
Clouds: Συννεφιά
Visibility: 16 km
Cloud details: Few Clouds 1036 m
Few Clouds 1524 m
Συννεφιά 3658 m
2024/03/02 21:53 KSJC 022153Z 24011G19KT 10SM FEW034 FEW050 OVC120 13/02 A2986 RMK AO2 SLP110 T01280017
KNUQ - Moffett Nas/Mtn, California, USA
Distance from station: Β 14km
Ενημερώθηκε: 02/03/2024 23:55
Αίθριος
Αίθριος
 Ανεμος από ΝΔ
Ανεμος: ΝΔ 17 km/h, Ριπή: 31 km/h
Θερμοκρασία: 12°C
Σημείο Δρόσου: 3°C
Υγρασία: 54%
Βαρόμετρο: 1011.2 hPa
Clouds: Αίθριος
Visibility: 16 km
2024/03/02 21:55 KNUQ 022155Z AUTO 23009G17KT 200V260 10SM CLR 12/03 A2986 RMK AO2
 
KPAO - Palo Alto, California, USA
Distance from station: ΒΒΔ 23km
Ενημερώθηκε: 02/03/2024 23:47
Σχεδόν νεφελώδης
Σχεδόν νεφελώδης
 Ανεμος από ΝΝΔ
Ανεμος: ΝΝΔ 24 km/h
Θερμοκρασία: 12°C
Σημείο Δρόσου: 4°C
Υγρασία: 58%
Βαρόμετρο: 1011.2 hPa
Clouds: Σχεδόν νεφελώδης
Visibility: 16 km
Cloud details: Few Clouds 914 m
Σχεδόν νεφελώδης 1524 m
2024/03/02 21:47 KPAO 022147Z 21013KT 10SM FEW030 BKN050 12/04 A2986
KRHV - San Jose/Reid, California, USA
Distance from station: ΑΒΑ 19km
Ενημερώθηκε: 02/03/2024 23:47
Σχεδόν νεφελώδης
Σχεδόν νεφελώδης
 Ανεμος από ΝΔ
Ανεμος: ΝΔ 19 km/h
Θερμοκρασία: 12°C
Σημείο Δρόσου: 2°C
Υγρασία: 51%
Βαρόμετρο: 1011.9 hPa
Clouds: Σχεδόν νεφελώδης
Visibility: 13 km
Cloud details: Σχεδόν νεφελώδης 762 m
2024/03/02 21:47 KRHV 022147Z 23010KT 8SM BKN025 12/02 A2988
 
KOAK - Oakland, California, USA
Distance from station: ΒΒΔ 50km
Ενημερώθηκε: 02/03/2024 23:53
Σχεδόν νεφελώδης
Σχεδόν νεφελώδης
 Ανεμος από ΝΝΔ
Ανεμος: ΝΝΔ 30 km/h
Θερμοκρασία: 11°C
Σημείο Δρόσου: 4°C
Υγρασία: 62%
Βαρόμετρο: 1010.5 hPa
Clouds: Σχεδόν νεφελώδης
Visibility: 16 km
Cloud details: Μερικώς νεφελώδης 1006 m
Σχεδόν νεφελώδης 1372 m
Σχεδόν νεφελώδης 2134 m
2024/03/02 21:53 KOAK 022153Z 20016KT 10SM SCT033 BKN045 BKN070 11/04 A2984 RMK AO2 PK WND 22026/2131 SLP106 T01110044
KSQL - San Carlos Airpo, California, USA
Distance from station: ΒΔ 34km
Ενημερώθηκε: 02/03/2024 23:52
Σχεδόν νεφελώδης
Σχεδόν νεφελώδης
 Ανεμος από ΝΝΔ
Ανεμος: ΝΝΔ 20 km/h, Ριπή: 33 km/h
Θερμοκρασία: 12°C
Σημείο Δρόσου: 4°C
Υγρασία: 58%
Βαρόμετρο: 1010.8 hPa
Clouds: Σχεδόν νεφελώδης
Visibility: 16 km
Cloud details: Few Clouds 914 m
Σχεδόν νεφελώδης 1524 m
2024/03/02 21:52 KSQL 022152Z 21011G18KT 10SM FEW030 BKN050 12/04 A2985
 
KSFO - San Francisco, California, USA
Distance from station: ΒΔ 49km
Ενημερώθηκε: 02/03/2024 23:56
Συννεφιά
Συννεφιά
 Ανεμος από ΝΝΔ
Ανεμος: ΝΝΔ 30 km/h, Ριπή: 43 km/h
Θερμοκρασία: 12°C
Σημείο Δρόσου: 5°C
Υγρασία: 63%
Βαρόμετρο: 1010.5 hPa
Clouds: Συννεφιά
Visibility: 16 km
Cloud details: Few Clouds 1067 m
Σχεδόν νεφελώδης 2743 m
Συννεφιά 3658 m
2024/03/02 21:56 KSFO 022156Z 21016G23KT 10SM FEW035 BKN090 OVC120 12/05 A2984 RMK AO2 PK WND 20028/2144 SLP103 T01170050 $
KE16 - San Martin, California, USA
Distance from station: ΑΝΑ 43km
Ενημερώθηκε: 02/03/2024 23:55
Μερικώς νεφελώδης
Μερικώς νεφελώδης
 Ανεμος από ΝΝΔ
Ανεμος: ΝΝΔ 28 km/h
Θερμοκρασία: 11°C
Σημείο Δρόσου: 3°C
Υγρασία: 58%
Βαρόμετρο: 1012.5 hPa
Clouds: Μερικώς νεφελώδης
Visibility: 16 km
Cloud details: Μερικώς νεφελώδης 3353 m
2024/03/02 21:55 KE16 022155Z AUTO 21015KT 10SM SCT110 11/03 A2990 RMK AO2 PWINO PNO
 
KWVI - Watsonville, California, USA
Distance from station: ΝΝΑ 44km
Ενημερώθηκε: 02/03/2024 23:53
Συννεφιά
Συννεφιά
 Ανεμος από ΝΔ
Ανεμος: ΝΔ 20 km/h, Ριπή: 31 km/h
Θερμοκρασία: 11°C
Σημείο Δρόσου: 6°C
Υγρασία: 72%
Βαρόμετρο: 1012.2 hPa
Clouds: Συννεφιά
Visibility: 16 km
Cloud details: Few Clouds 1280 m
Σχεδόν νεφελώδης 1981 m
Συννεφιά 2896 m
2024/03/02 21:53 KWVI 022153Z AUTO 23011G17KT 10SM FEW042 BKN065 OVC095 11/06 A2989 RMK AO2 RAB28E42 SLP122 P0001 T01110061
KHAF - Half Moon Bay, California, USA
Distance from station: ΔΒΔ 50km
Ενημερώθηκε: 02/03/2024 23:55
Σχεδόν νεφελώδης
Σχεδόν νεφελώδης
 Ανεμος από ΝΔ
Ανεμος: ΝΔ 24 km/h
Θερμοκρασία: 11°C
Σημείο Δρόσου: 5°C
Υγρασία: 67%
Βαρόμετρο: 1010.8 hPa
Clouds: Σχεδόν νεφελώδης
Visibility: 13 km
Cloud details: Μερικώς νεφελώδης 1067 m
Σχεδόν νεφελώδης 1524 m
Σχεδόν νεφελώδης 1829 m
2024/03/02 21:55 KHAF 022155Z AUTO 22013KT 180V250 8SM SCT035 BKN050 BKN060 11/05 A2985 RMK AO2
 
KHWD - Hayward, California, USA
Distance from station: Β 44km
Ενημερώθηκε: 02/03/2024 23:54
Ασθενής βροχή, Συννεφιά
Ασθενής βροχή, Συννεφιά
 Ανεμος από ΝΝΔ
Ανεμος: ΝΝΔ 22 km/h, Ριπή: 39 km/h
Θερμοκρασία: 13°C
Σημείο Δρόσου: 2°C
Υγρασία: 47%
Βαρόμετρο: 1010.5 hPa
Περίληψη: Ασθενής βροχή
Clouds: Συννεφιά
Visibility: 16 km
Cloud details: Few Clouds 1494 m
Σχεδόν νεφελώδης 2286 m
Συννεφιά 2896 m
2024/03/02 21:54 KHWD 022154Z 21012G21KT 10SM -RA FEW049 BKN075 OVC095 13/02 A2984 RMK AO2 RAB2058 SLP115 P0000 T01280022
KLVK - Livermore, California, USA
Distance from station: ΒΒΑ 51km
Ενημερώθηκε: 02/03/2024 23:53
Σχεδόν νεφελώδης
Σχεδόν νεφελώδης
 Ανεμος από ΝΝΔ
Ανεμος: ΝΝΔ 22 km/h
Θερμοκρασία: 11°C
Σημείο Δρόσου: 3°C
Υγρασία: 58%
Βαρόμετρο: 1010.2 hPa
Clouds: Σχεδόν νεφελώδης
Visibility: 16 km
Cloud details: Μερικώς νεφελώδης 2134 m
Σχεδόν νεφελώδης 2743 m
Σχεδόν νεφελώδης 3353 m
2024/03/02 21:53 KLVK 022153Z 21012KT 10SM SCT070 BKN090 BKN110 11/03 A2983 RMK AO2 RAB06E21 SLP099 P0000 T01110033